Terminal Aerodrome Forecast
Issued by NWS

Current Version | Previous Version | Text Only | Print | Product List | Glossary On
Versions: 1 2 3 4 5 6 7 8 9 10 11 12 13 14 15
000
FTUS45 KFGZ 262300
TAFSEZ
TAF
KSEZ 262330Z 2700/2724 VRB05KT P6SM SCT060 OVC080
     FM270100 04008KT P6SM SCT080 SCT100
     FM271700 24011KT P6SM SCT080 BKN100=

USA.gov is the U.S. government's official web portal to all federal, state and local government web resources and services.